Time;durP1;ratioP1;P1;durP2;ratioP2;P2;SDS_P1;SDS_P2;PMS_P1;PMS_P2;Temp;Humidity;BMP_temperature;BMP_pressure;BME280_temperature;BME280_humidity;BME280_pressure;Samples;Min_cycle;Max_cycle;Signal;HPM_P1;HPM_P2
2021/12/23 00:00:22;;;;;;;21.98;13.35;;;0.00;99.90;;;;;;5115790;27;20168;-50
2021/12/23 00:02:47;;;;;;;24.70;15.30;;;-0.10;99.90;;;;;;5133096;27;20179;-50
2021/12/23 00:05:13;;;;;;;26.42;13.48;;;0.00;99.90;;;;;;5134108;27;20225;-50
2021/12/23 00:07:39;;;;;;;26.65;14.43;;;0.00;99.90;;;;;;5134103;27;20160;-50
2021/12/23 00:10:06;;;;;;;24.92;14.38;;;0.00;99.90;;;;;;5133864;27;20168;-50
2021/12/23 00:12:35;;;;;;;24.70;15.27;;;0.00;99.90;;;;;;5134179;27;20172;-49
2021/12/23 00:15:02;;;;;;;28.08;14.18;;;0.00;99.90;;;;;;5133986;27;20505;-50
2021/12/23 00:17:53;;;;;;;27.40;14.75;;;0.00;99.90;;;;;;5134367;27;20203;-50
2021/12/23 00:25:23;;;;;;;28.35;14.75;;;0.00;99.90;;;;;;5133743;27;20220;-50
2021/12/23 00:27:49;;;;;;;24.98;14.13;;;0.00;99.90;;;;;;5133660;27;20168;-49
2021/12/23 00:30:14;;;;;;;24.50;13.38;;;0.00;99.90;;;;;;5133713;27;20160;-50
2021/12/23 00:32:40;;;;;;;25.05;14.05;;;0.00;99.90;;;;;;5133634;27;20176;-50
2021/12/23 00:35:07;;;;;;;23.92;13.25;;;0.00;99.90;;;;;;5133602;27;20187;-51
2021/12/23 00:37:38;;;;;;;19.75;13.35;;;0.00;99.90;;;;;;5133774;27;20252;-50
2021/12/23 00:40:05;;;;;;;22.17;13.52;;;0.00;99.90;;;;;;5133496;27;20156;-50
2021/12/23 00:42:32;;;;;;;24.15;14.13;;;0.00;99.90;;;;;;5133457;27;20527;-50
2021/12/23 00:44:58;;;;;;;22.45;13.60;;;0.00;99.90;;;;;;5133987;27;20174;-51
2021/12/23 00:47:24;;;;;;;28.13;13.93;;;0.00;99.90;;;;;;5133366;27;20164;-51
2021/12/23 00:49:49;;;;;;;22.67;13.93;;;0.00;99.90;;;;;;5133405;27;20168;-50
2021/12/23 00:52:17;;;;;;;25.48;15.07;;;0.00;99.90;;;;;;5133395;27;20164;-51
2021/12/23 00:54:43;;;;;;;27.15;15.68;;;-0.10;99.90;;;;;;5133598;27;20174;-50
2021/12/23 00:57:09;;;;;;;34.63;18.67;;;-0.10;99.90;;;;;;5133101;27;20199;-50
2021/12/23 00:59:37;;;;;;;28.33;15.77;;;-0.10;99.90;;;;;;5133296;27;20164;-49
2021/12/23 01:02:06;;;;;;;30.70;16.35;;;-0.10;99.90;;;;;;5133354;27;20178;-49
2021/12/23 01:04:32;;;;;;;24.52;14.40;;;-0.10;99.90;;;;;;5133088;27;20194;-49
2021/12/23 01:06:59;;;;;;;30.63;16.67;;;-0.10;99.90;;;;;;5132993;27;20181;-50
2021/12/23 01:09:24;;;;;;;24.80;13.95;;;-0.10;99.90;;;;;;5133074;27;20654;-50
2021/12/23 01:11:50;;;;;;;23.90;13.27;;;-0.10;99.90;;;;;;5132873;27;20212;-50
2021/12/23 01:19:23;;;;;;;28.83;16.15;;;-0.10;99.90;;;;;;5133144;27;20183;-50
2021/12/23 01:21:48;;;;;;;37.75;17.80;;;-0.20;99.90;;;;;;5132937;27;20160;-51
2021/12/23 01:24:14;;;;;;;23.15;14.20;;;-0.20;99.90;;;;;;5132905;27;20160;-50
2021/12/23 01:26:40;;;;;;;28.75;16.15;;;-0.20;99.90;;;;;;5132910;27;20172;-50
2021/12/23 01:29:07;;;;;;;30.40;17.70;;;-0.10;99.90;;;;;;5133108;27;20523;-50
2021/12/23 01:31:34;;;;;;;29.33;15.93;;;-0.20;99.90;;;;;;5114389;28;20168;-50
2021/12/23 01:34:01;;;;;;;21.13;13.43;;;-0.10;99.90;;;;;;5132897;27;20178;-51
2021/12/23 01:36:27;;;;;;;28.02;15.75;;;-0.10;99.90;;;;;;5133046;27;20203;-49
2021/12/23 01:38:53;;;;;;;28.75;15.85;;;-0.20;99.90;;;;;;5114396;28;20534;-50
2021/12/23 01:41:21;;;;;;;27.80;15.00;;;-0.20;99.90;;;;;;5132714;27;20172;-50
2021/12/23 01:43:46;;;;;;;24.52;14.32;;;-0.20;99.90;;;;;;5132923;27;20178;-50
2021/12/23 01:46:12;;;;;;;29.05;15.40;;;-0.20;99.90;;;;;;5132712;27;20239;-51
2021/12/23 01:48:37;;;;;;;33.40;19.85;;;-0.20;99.90;;;;;;5132627;27;20160;-50
2021/12/23 01:51:03;;;;;;;25.42;14.88;;;-0.10;99.90;;;;;;5132725;27;20164;-50
2021/12/23 01:53:29;;;;;;;22.75;15.52;;;-0.20;99.90;;;;;;5133190;27;20168;-49
2021/12/23 01:55:54;;;;;;;28.90;16.10;;;-0.20;99.90;;;;;;5132440;27;20235;-50
2021/12/23 01:58:20;;;;;;;28.05;15.77;;;-0.20;99.90;;;;;;5132539;27;20214;-50
2021/12/23 02:00:50;;;;;;;31.90;17.30;;;-0.20;99.90;;;;;;5132577;27;20167;-50
2021/12/23 02:03:16;;;;;;;24.15;14.25;;;-0.20;99.90;;;;;;5132709;27;20180;-49
2021/12/23 02:05:43;;;;;;;29.85;16.98;;;-0.20;99.90;;;;;;5132475;27;20166;-50
2021/12/23 02:08:09;;;;;;;21.50;12.98;;;-0.20;99.90;;;;;;5132455;27;20491;-50
2021/12/23 02:10:34;;;;;;;26.45;14.63;;;-0.20;99.90;;;;;;5132579;27;20222;-51
2021/12/23 02:13:01;;;;;;;25.73;15.23;;;-0.10;99.90;;;;;;5132471;27;20168;-50
2021/12/23 02:15:27;;;;;;;23.85;14.77;;;-0.20;99.90;;;;;;5132656;27;20168;-50
2021/12/23 02:17:54;;;;;;;26.67;15.63;;;-0.20;99.90;;;;;;5132445;27;20181;-50
2021/12/23 02:20:23;;;;;;;24.15;13.77;;;-0.10;99.90;;;;;;5132372;27;20630;-50
2021/12/23 02:22:49;;;;;;;22.52;13.80;;;-0.10;99.90;;;;;;5132397;27;20164;-50
2021/12/23 02:25:16;;;;;;;25.35;15.50;;;-0.10;99.90;;;;;;5132755;27;20638;-49
2021/12/23 02:27:42;;;;;;;26.10;14.35;;;-0.10;99.90;;;;;;5136022;27;20645;-50
2021/12/23 02:30:12;;;;;;;27.38;15.48;;;-0.10;99.90;;;;;;5136126;27;20246;-51
2021/12/23 02:32:39;;;;;;;25.00;14.65;;;0.00;99.90;;;;;;5136015;27;20164;-51
2021/12/23 02:35:09;;;;;;;23.05;13.77;;;0.00;99.90;;;;;;5135942;27;20165;-50
2021/12/23 02:37:34;;;;;;;22.33;13.30;;;0.00;99.90;;;;;;5135693;27;20204;-50
2021/12/23 02:40:00;;;;;;;27.90;15.02;;;0.00;99.90;;;;;;5135834;27;20227;-49
2021/12/23 02:42:26;;;;;;;22.75;14.35;;;0.00;99.90;;;;;;5136241;27;20220;-50
2021/12/23 02:44:54;;;;;;;23.98;14.43;;;0.00;99.90;;;;;;5135786;27;20186;-50
2021/12/23 02:47:20;;;;;;;24.42;14.98;;;0.00;99.90;;;;;;5135656;27;20167;-50
2021/12/23 02:49:46;;;;;;;27.50;15.60;;;0.00;99.90;;;;;;5135592;27;20156;-50
2021/12/23 02:52:12;;;;;;;23.80;15.15;;;0.00;99.90;;;;;;5135591;27;20639;-50
2021/12/23 02:54:37;;;;;;;22.80;13.90;;;0.00;99.90;;;;;;5135617;27;20179;-50
2021/12/23 02:57:04;;;;;;;25.02;14.40;;;0.00;99.90;;;;;;5135499;27;20222;-51
2021/12/23 02:59:29;;;;;;;24.42;14.45;;;1.20;99.90;;;;;;5135805;27;20628;-51
2021/12/23 03:01:55;;;;;;;27.15;14.05;;;0.00;99.90;;;;;;5135810;27;20168;-51
2021/12/23 03:04:21;;;;;;;22.67;13.75;;;0.00;99.90;;;;;;5135538;27;20251;-50
2021/12/23 03:06:46;;;;;;;28.35;15.13;;;0.10;99.90;;;;;;5135297;27;20172;-50
2021/12/23 03:09:12;;;;;;;24.42;15.00;;;0.10;99.90;;;;;;5135233;27;20255;-50
2021/12/23 03:11:40;;;;;;;23.83;15.10;;;0.10;99.90;;;;;;5135054;27;20216;-50
2021/12/23 03:14:07;;;;;;;26.77;14.23;;;0.10;99.90;;;;;;5135127;27;20662;-50
2021/12/23 03:16:35;;;;;;;28.08;14.85;;;0.10;99.90;;;;;;5135251;27;20203;-50
2021/12/23 03:19:02;;;;;;;26.90;14.93;;;0.10;99.90;;;;;;5135068;27;20164;-51
2021/12/23 03:21:27;;;;;;;26.50;14.75;;;0.10;99.90;;;;;;5135280;27;20171;-50
2021/12/23 03:23:53;;;;;;;30.00;14.45;;;0.00;99.90;;;;;;5134930;27;20247;-51
2021/12/23 03:26:19;;;;;;;22.60;14.82;;;0.10;99.90;;;;;;5135008;27;20164;-50
2021/12/23 03:28:44;;;;;;;29.40;15.48;;;0.00;99.90;;;;;;5134851;27;20176;-50
2021/12/23 03:31:10;;;;;;;27.33;14.73;;;0.00;99.90;;;;;;5134817;27;20239;-50
2021/12/23 03:33:35;;;;;;;24.75;14.98;;;0.00;99.90;;;;;;5134793;27;20172;-50
2021/12/23 03:36:01;;;;;;;28.08;15.55;;;0.00;99.90;;;;;;5134394;27;20195;-50
2021/12/23 03:38:27;;;;;;;29.95;15.35;;;0.00;99.90;;;;;;5135128;27;20175;-50
2021/12/23 03:40:54;;;;;;;25.65;15.25;;;0.00;99.90;;;;;;5134578;27;20198;-49
2021/12/23 03:43:20;;;;;;;23.50;13.68;;;0.00;99.90;;;;;;5134576;27;20164;-50
2021/12/23 03:45:47;;;;;;;26.40;14.77;;;0.00;99.90;;;;;;5134549;27;20623;-50
2021/12/23 03:48:14;;;;;;;22.30;14.15;;;0.00;99.90;;;;;;5134542;27;20220;-50
2021/12/23 03:50:41;;;;;;;25.25;15.15;;;0.10;99.90;;;;;;5116058;27;20260;-50
2021/12/23 03:53:07;;;;;;;21.42;13.35;;;0.10;99.90;;;;;;5134571;27;20164;-50
2021/12/23 03:55:32;;;;;;;26.38;15.32;;;0.10;99.90;;;;;;5134324;27;20293;-50
2021/12/23 03:57:58;;;;;;;26.50;16.05;;;0.10;99.90;;;;;;5116384;27;20627;-50
2021/12/23 04:00:25;;;;;;;23.55;14.65;;;0.10;99.90;;;;;;5134200;27;20171;-50
2021/12/23 04:02:52;;;;;;;25.20;14.77;;;0.10;99.90;;;;;;5134515;27;20190;-50
2021/12/23 04:05:19;;;;;;;24.23;14.25;;;0.20;99.90;;;;;;5134232;27;20626;-51
2021/12/23 04:07:45;;;;;;;26.30;14.57;;;0.10;99.90;;;;;;5134097;27;20164;-51
2021/12/23 04:10:15;;;;;;;23.67;13.88;;;0.10;99.90;;;;;;5134201;27;20223;-51
2021/12/23 04:12:41;;;;;;;25.85;14.90;;;0.10;99.90;;;;;;5133973;27;20219;-50
2021/12/23 04:15:07;;;;;;;26.95;14.57;;;0.10;99.90;;;;;;5133958;27;20160;-50
2021/12/23 04:17:33;;;;;;;23.77;14.30;;;0.20;99.90;;;;;;5134121;27;20242;-50
2021/12/23 04:20:10;;;;;;;31.50;16.60;;;0.20;99.90;;;;;;5134206;27;20160;-51
2021/12/23 04:22:35;;;;;;;29.00;14.65;;;0.20;99.90;;;;;;5133999;27;20224;-49
2021/12/23 04:25:01;;;;;;;26.90;15.18;;;0.10;99.90;;;;;;5133851;27;20561;-49
2021/12/23 04:27:27;;;;;;;23.92;14.93;;;0.20;99.90;;;;;;5134015;27;20696;-49
2021/12/23 04:29:52;;;;;;;28.63;16.45;;;0.10;99.90;;;;;;5133666;27;20247;-49
2021/12/23 04:32:18;;;;;;;28.63;15.70;;;0.10;99.90;;;;;;5133679;27;20205;-50
2021/12/23 04:34:43;;;;;;;24.92;14.40;;;0.10;99.90;;;;;;5133688;27;20209;-49
2021/12/23 04:37:09;;;;;;;25.73;15.02;;;0.10;99.90;;;;;;5133494;27;20195;-49
2021/12/23 04:39:34;;;;;;;27.77;15.68;;;0.10;99.90;;;;;;5134048;27;20522;-50
2021/12/23 04:42:00;;;;;;;32.83;17.85;;;0.10;99.90;;;;;;5133531;27;20160;-49
2021/12/23 04:44:26;;;;;;;31.10;16.30;;;0.00;99.90;;;;;;5115235;27;20175;-49
2021/12/23 04:46:51;;;;;;;30.63;15.60;;;0.00;99.90;;;;;;5133391;27;20174;-50
2021/12/23 04:49:21;;;;;;;24.15;14.82;;;0.00;99.90;;;;;;5132776;27;20300;-49
2021/12/23 04:51:47;;;;;;;30.70;17.13;;;0.10;99.90;;;;;;5133520;27;20180;-50
2021/12/23 04:54:12;;;;;;;27.08;15.70;;;0.10;99.90;;;;;;5133371;27;20264;-50
2021/12/23 04:56:38;;;;;;;28.08;15.18;;;0.10;99.90;;;;;;5132849;27;20241;-49
2021/12/23 04:59:03;;;;;;;27.70;15.55;;;0.10;99.90;;;;;;5133036;27;20168;-50
2021/12/23 05:01:31;;;;;;;25.55;15.45;;;0.00;99.90;;;;;;5133557;27;20524;-50
2021/12/23 05:03:57;;;;;;;27.77;14.10;;;-0.20;99.90;;;;;;5133445;27;20254;-49
2021/12/23 05:06:23;;;;;;;28.00;15.55;;;0.00;99.90;;;;;;5133368;27;20247;-50
2021/12/23 05:08:48;;;;;;;31.73;15.20;;;0.00;99.90;;;;;;5132953;27;20190;-50
2021/12/23 05:11:14;;;;;;;28.50;16.33;;;0.00;99.90;;;;;;5132894;27;20254;-50
2021/12/23 05:13:39;;;;;;;31.52;15.73;;;0.00;99.90;;;;;;5133055;27;20170;-50
2021/12/23 05:16:05;;;;;;;31.77;16.33;;;0.00;99.90;;;;;;5132884;27;20283;-50
2021/12/23 05:18:31;;;;;;;28.77;16.10;;;0.00;99.90;;;;;;5132934;27;20175;-50
2021/12/23 05:20:57;;;;;;;30.80;15.75;;;0.00;99.90;;;;;;5133217;27;20168;-50
2021/12/23 05:23:22;;;;;;;29.02;15.25;;;0.00;99.90;;;;;;5133170;27;20252;-50
2021/12/23 05:25:48;;;;;;;26.88;15.77;;;0.00;99.90;;;;;;5132835;27;20523;-50
2021/12/23 05:28:13;;;;;;;26.15;16.70;;;0.00;99.90;;;;;;5133114;27;20175;-50
2021/12/23 05:30:39;;;;;;;31.15;16.67;;;0.00;99.90;;;;;;5132969;27;20160;-51
2021/12/23 05:33:05;;;;;;;30.92;15.40;;;0.00;99.90;;;;;;5133027;27;20172;-51
2021/12/23 05:35:31;;;;;;;24.15;15.77;;;-0.10;99.90;;;;;;5132761;27;20168;-50
2021/12/23 05:37:57;;;;;;;25.40;15.32;;;-0.10;99.90;;;;;;5133035;27;20225;-50
2021/12/23 05:40:25;;;;;;;27.75;16.13;;;-0.10;99.90;;;;;;5132960;27;20189;-49
2021/12/23 05:42:52;;;;;;;27.55;15.07;;;0.00;99.90;;;;;;5132676;27;20171;-50
2021/12/23 05:45:18;;;;;;;30.33;16.15;;;0.00;99.90;;;;;;5132680;27;20172;-50
2021/12/23 05:47:45;;;;;;;29.52;16.52;;;0.00;99.90;;;;;;5132880;27;20635;-50
2021/12/23 05:50:12;;;;;;;30.55;16.17;;;0.00;99.90;;;;;;5132978;27;20195;-50
2021/12/23 05:52:38;;;;;;;26.42;14.70;;;0.10;99.90;;;;;;5113896;27;20531;-50
2021/12/23 05:55:05;;;;;;;29.98;18.20;;;0.10;99.90;;;;;;5132335;27;20168;-50
2021/12/23 05:57:31;;;;;;;28.10;16.30;;;0.10;99.90;;;;;;5132513;27;20299;-50
2021/12/23 05:59:57;;;;;;;25.77;14.85;;;0.00;99.90;;;;;;5114334;28;20259;-50
2021/12/23 06:02:23;;;;;;;33.53;16.42;;;0.10;99.90;;;;;;5136415;27;20203;-50
2021/12/23 06:04:49;;;;;;;28.80;15.82;;;0.00;99.90;;;;;;5136832;27;20170;-50
2021/12/23 06:07:14;;;;;;;26.92;15.45;;;0.00;99.90;;;;;;5136470;27;20167;-50
2021/12/23 06:09:40;;;;;;;29.42;15.85;;;0.10;99.90;;;;;;5135923;27;20179;-50
2021/12/23 06:12:06;;;;;;;27.10;15.90;;;0.10;99.90;;;;;;5115475;28;20240;-49
2021/12/23 06:14:32;;;;;;;26.70;15.90;;;0.10;99.90;;;;;;5115683;28;20210;-50
2021/12/23 06:16:57;;;;;;;26.38;15.60;;;0.10;99.90;;;;;;5115709;28;20321;-48
2021/12/23 06:19:23;;;;;;;28.85;16.08;;;0.10;99.90;;;;;;5115725;28;20200;-50
2021/12/23 06:21:48;;;;;;;27.63;16.05;;;0.10;99.90;;;;;;5115609;28;20177;-49
2021/12/23 06:24:14;;;;;;;24.67;15.15;;;0.20;99.90;;;;;;5115529;28;20160;-49
2021/12/23 06:26:39;;;;;;;29.83;16.10;;;0.20;99.90;;;;;;5115554;28;20171;-50
2021/12/23 06:29:05;;;;;;;27.63;16.38;;;0.20;99.90;;;;;;5115504;28;20164;-50
2021/12/23 06:31:30;;;;;;;27.45;15.85;;;0.20;99.90;;;;;;5115415;28;20253;-50
2021/12/23 06:33:56;;;;;;;33.40;17.27;;;0.20;99.90;;;;;;5115705;28;20640;-50
2021/12/23 06:36:21;;;;;;;23.65;14.27;;;0.20;99.90;;;;;;5115375;28;20671;-49
2021/12/23 06:38:48;;;;;;;32.03;17.13;;;0.20;99.90;;;;;;5115277;28;20169;-49
2021/12/23 06:41:15;;;;;;;32.30;17.00;;;0.30;99.90;;;;;;5115520;28;20194;-50
2021/12/23 06:43:41;;;;;;;28.52;16.92;;;0.30;99.90;;;;;;5115218;28;20164;-50
2021/12/23 06:46:06;;;;;;;37.55;20.70;;;0.40;99.90;;;;;;5115435;28;20252;-51
2021/12/23 06:48:33;;;;;;;29.65;18.13;;;0.30;99.90;;;;;;5115440;28;20644;-51
2021/12/23 06:50:59;;;;;;;30.23;16.65;;;0.30;99.90;;;;;;5115429;28;20161;-51
2021/12/23 06:53:25;;;;;;;26.40;16.73;;;0.30;99.90;;;;;;5115363;28;20206;-51
2021/12/23 06:55:52;;;;;;;29.30;16.85;;;0.30;99.90;;;;;;5114721;28;20237;-50
2021/12/23 06:58:19;;;;;;;24.67;14.88;;;0.40;99.90;;;;;;5115049;28;20176;-50
2021/12/23 07:00:45;;;;;;;31.83;16.35;;;0.40;99.90;;;;;;5114890;28;20157;-50
2021/12/23 07:03:11;;;;;;;30.08;17.63;;;0.40;99.90;;;;;;5114891;28;20172;-51
2021/12/23 07:05:37;;;;;;;35.60;18.55;;;0.40;99.90;;;;;;5114821;28;20172;-51
2021/12/23 07:08:08;;;;;;;32.58;17.67;;;0.40;99.90;;;;;;5114792;28;20172;-52
2021/12/23 07:10:34;;;;;;;26.88;16.90;;;0.40;99.90;;;;;;5114771;28;20242;-50
2021/12/23 07:13:00;;;;;;;31.17;18.02;;;0.50;99.90;;;;;;5114509;28;20164;-50
2021/12/23 07:15:27;;;;;;;31.42;16.98;;;0.50;99.90;;;;;;5114875;28;20568;-50
2021/12/23 07:17:54;;;;;;;28.55;16.27;;;0.50;99.90;;;;;;5114208;28;20201;-50
2021/12/23 07:20:20;;;;;;;26.42;16.15;;;0.50;99.90;;;;;;5114343;28;20168;-49
2021/12/23 07:22:47;;;;;;;26.98;16.65;;;0.40;99.90;;;;;;5114459;28;20244;-50
2021/12/23 07:25:13;;;;;;;32.33;17.20;;;0.40;99.90;;;;;;5114360;28;20171;-50
2021/12/23 07:27:39;;;;;;;29.13;16.73;;;0.50;99.90;;;;;;5114708;28;20177;-51
2021/12/23 07:30:06;;;;;;;29.35;16.70;;;0.50;99.90;;;;;;5114335;28;20161;-50
2021/12/23 07:32:32;;;;;;;27.10;16.45;;;0.50;99.90;;;;;;5114303;28;20172;-50
2021/12/23 07:34:57;;;;;;;37.88;21.33;;;0.60;99.90;;;;;;5114573;28;20156;-50
2021/12/23 07:37:23;;;;;;;29.90;15.65;;;0.60;99.90;;;;;;5114156;28;20211;-51
2021/12/23 07:39:49;;;;;;;29.27;17.02;;;0.60;99.90;;;;;;5114173;28;20175;-51
2021/12/23 07:42:15;;;;;;;28.05;16.17;;;0.60;99.90;;;;;;5114127;28;20285;-51
2021/12/23 07:44:45;;;;;;;28.13;15.70;;;0.70;99.90;;;;;;5114358;28;20532;-51
2021/12/23 07:47:12;;;;;;;28.25;16.13;;;0.60;99.90;;;;;;5113720;28;20169;-50
2021/12/23 07:49:38;;;;;;;26.15;16.10;;;0.60;99.90;;;;;;5114115;28;20168;-50
2021/12/23 07:52:05;;;;;;;26.88;15.60;;;0.60;99.90;;;;;;5114151;28;20577;-49
2021/12/23 07:54:30;;;;;;;27.85;16.50;;;0.60;99.90;;;;;;5113887;28;20169;-50
2021/12/23 07:56:56;;;;;;;27.42;16.05;;;0.70;99.90;;;;;;5114018;28;20250;-51
2021/12/23 07:59:21;;;;;;;33.47;16.42;;;0.60;99.90;;;;;;5113991;28;20255;-51
2021/12/23 08:01:47;;;;;;;29.83;16.35;;;0.70;99.90;;;;;;5113751;28;20685;-50
2021/12/23 08:04:13;;;;;;;31.75;17.65;;;0.70;99.90;;;;;;5095352;28;20172;-49
2021/12/23 08:06:38;;;;;;;31.15;16.90;;;0.70;99.90;;;;;;5113438;28;20573;-50
2021/12/23 08:09:04;;;;;;;31.77;16.95;;;0.80;99.90;;;;;;5113697;28;20172;-50
2021/12/23 08:11:29;;;;;;;32.13;17.10;;;0.80;99.90;;;;;;5113784;28;20272;-51
2021/12/23 08:13:55;;;;;;;29.45;16.13;;;0.90;99.90;;;;;;5114015;28;20491;-50
2021/12/23 08:16:20;;;;;;;32.95;18.55;;;0.90;99.90;;;;;;5113637;28;20682;-51
2021/12/23 08:18:46;;;;;;;27.80;15.60;;;0.90;99.90;;;;;;5113245;28;20314;-51
2021/12/23 08:21:12;;;;;;;29.83;17.00;;;0.90;99.90;;;;;;5113336;28;20198;-50
2021/12/23 08:23:38;;;;;;;27.63;15.70;;;0.90;99.90;;;;;;5112130;28;20236;-49
2021/12/23 08:26:10;;;;;;;35.55;17.02;;;0.90;99.90;;;;;;5113231;28;20256;-49
2021/12/23 08:28:36;;;;;;;25.98;15.85;;;1.00;99.90;;;;;;5094797;28;20175;-49
2021/12/23 08:31:02;;;;;;;33.72;17.52;;;1.00;99.90;;;;;;5113415;28;20535;-50
2021/12/23 08:33:29;;;;;;;28.67;16.58;;;1.00;99.90;;;;;;5113441;28;20193;-50
2021/12/23 08:35:54;;;;;;;23.65;15.10;;;1.00;99.90;;;;;;5112862;28;20160;-48
2021/12/23 08:38:20;;;;;;;32.22;18.73;;;1.00;99.90;;;;;;5112822;28;20168;-49
2021/12/23 08:40:45;;;;;;;28.67;15.70;;;1.00;99.90;;;;;;5112640;28;20164;-49
2021/12/23 08:43:12;;;;;;;24.95;15.07;;;1.00;99.90;;;;;;5112406;28;20628;-50
2021/12/23 08:45:38;;;;;;;31.00;16.92;;;1.10;99.90;;;;;;5094473;28;20184;-50
2021/12/23 08:48:04;;;;;;;29.95;16.58;;;1.00;99.90;;;;;;5112798;28;20581;-49
2021/12/23 08:50:30;;;;;;;33.47;17.50;;;1.00;99.90;;;;;;5113452;28;20269;-49
2021/12/23 08:52:57;;;;;;;31.52;16.75;;;1.10;99.90;;;;;;5113048;28;20161;-50
2021/12/23 08:55:26;;;;;;;26.98;15.50;;;1.10;99.90;;;;;;5112668;28;20164;-49
2021/12/23 08:57:52;;;;;;;32.95;17.70;;;1.10;99.90;;;;;;5112989;28;20204;-48
2021/12/23 09:00:19;;;;;;;29.17;17.08;;;1.10;99.90;;;;;;5112530;28;20527;-51
2021/12/23 09:02:46;;;;;;;27.30;16.73;;;1.20;99.90;;;;;;5112816;28;20176;-51
2021/12/23 09:05:12;;;;;;;30.98;15.73;;;1.20;99.90;;;;;;5112868;28;20259;-51
2021/12/23 09:07:38;;;;;;;30.27;17.05;;;1.20;99.90;;;;;;5112556;28;20520;-51
2021/12/23 09:10:06;;;;;;;42.47;20.05;;;1.30;99.90;;;;;;5112605;28;20235;-50
2021/12/23 09:12:32;;;;;;;42.88;19.65;;;1.30;99.90;;;;;;5112384;28;20535;-50
2021/12/23 09:14:58;;;;;;;37.28;19.33;;;1.40;99.90;;;;;;5094525;28;20196;-51
2021/12/23 09:17:24;;;;;;;28.38;16.20;;;1.40;99.90;;;;;;5112018;28;20730;-51
2021/12/23 09:19:49;;;;;;;33.10;16.55;;;1.40;99.90;;;;;;5112249;28;20157;-51
2021/12/23 09:22:15;;;;;;;29.02;15.80;;;1.50;99.90;;;;;;5112454;28;20165;-51
2021/12/23 09:24:45;;;;;;;28.20;16.80;;;1.60;99.90;;;;;;5112305;28;20650;-51
2021/12/23 09:34:54;;;;;;;27.15;16.35;;;1.70;99.90;;;;;;5113812;28;20171;-51
2021/12/23 09:37:20;;;;;;;26.95;16.48;;;1.80;99.90;;;;;;5116421;28;20200;-51
2021/12/23 09:39:52;;;;;;;28.73;16.50;;;1.80;99.90;;;;;;5116487;28;20168;-50
2021/12/23 09:42:22;;;;;;;25.95;15.25;;;1.90;99.90;;;;;;5116703;28;20196;-50
2021/12/23 09:44:48;;;;;;;29.13;17.00;;;1.90;99.90;;;;;;5098021;28;20577;-50
2021/12/23 09:47:14;;;;;;;24.00;15.80;;;1.90;99.90;;;;;;5116573;28;20173;-50
2021/12/23 09:49:40;;;;;;;25.48;14.93;;;1.90;99.90;;;;;;5116522;28;20528;-50
2021/12/23 09:52:07;;;;;;;26.35;15.55;;;1.90;99.90;;;;;;5116210;28;20168;-50
2021/12/23 09:54:37;;;;;;;27.85;15.88;;;1.90;99.90;;;;;;5116137;28;20556;-50
2021/12/23 09:57:03;;;;;;;28.33;15.57;;;1.90;99.90;;;;;;5115956;28;20222;-51
2021/12/23 09:59:29;;;;;;;28.67;14.95;;;2.00;99.90;;;;;;5116487;28;20517;-51
2021/12/23 10:01:55;;;;;;;24.13;15.48;;;2.20;99.90;;;;;;5115944;28;20237;-51
2021/12/23 10:04:21;;;;;;;26.80;15.90;;;2.10;99.90;;;;;;5116355;28;20172;-52
2021/12/23 10:06:48;;;;;;;28.95;16.40;;;2.20;99.90;;;;;;5116150;28;20164;-52
2021/12/23 10:09:23;;;;;;;26.88;15.43;;;2.20;99.90;;;;;;5115822;28;20545;-52
2021/12/23 10:12:37;;;;;;;26.02;15.82;;;2.20;99.90;;;;;;5115690;28;20212;-52
2021/12/23 10:31:40;;;;;;;44.30;26.20;;;2.50;99.90;;;;;;5115452;28;20165;-53
2021/12/23 10:37:20;;;;;;;32.88;18.02;;;2.60;99.90;;;;;;5114869;28;20215;-53
2021/12/23 10:39:51;;;;;;;36.15;19.95;;;2.80;99.90;;;;;;5115643;28;20188;-53
2021/12/23 10:42:24;;;;;;;30.92;17.98;;;2.80;99.90;;;;;;5115294;28;20175;-53
2021/12/23 10:44:53;;;;;;;28.92;16.30;;;2.80;99.90;;;;;;5114994;28;20168;-52
2021/12/23 10:47:41;;;;;;;39.42;20.23;;;2.80;99.90;;;;;;5095878;28;20171;-53
2021/12/23 10:50:18;;;;;;;41.90;22.27;;;2.90;99.90;;;;;;5115116;28;20217;-53
2021/12/23 10:52:56;;;;;;;31.73;18.00;;;2.90;99.90;;;;;;5115136;28;20161;-48
2021/12/23 11:00:29;;;;;;;96.57;51.20;;;2.80;99.90;;;;;;5114868;28;20160;-53
2021/12/23 11:03:18;;;;;;;55.00;28.55;;;2.90;99.90;;;;;;5114988;28;20530;-53
2021/12/23 11:05:54;;;;;;;114.90;58.70;;;2.90;99.90;;;;;;5114844;28;20157;-52
2021/12/23 11:08:29;;;;;;;52.17;27.77;;;3.00;99.90;;;;;;5096530;28;20176;-54
2021/12/23 11:11:28;;;;;;;48.85;27.85;;;3.00;99.90;;;;;;5114629;28;20215;-53
2021/12/23 11:28:08;;;;;;;31.63;17.88;;;3.20;99.90;;;;;;5114687;28;20598;-53
2021/12/23 11:43:51;;;;;;;50.90;31.00;;;3.20;99.90;;;;;;5114370;28;20248;-53
2021/12/23 11:46:36;;;;;;;31.95;17.58;;;3.30;99.90;;;;;;5114250;28;20180;-53
2021/12/23 11:49:07;;;;;;;47.10;24.92;;;3.20;99.90;;;;;;5114142;28;20176;-53
2021/12/23 11:51:45;;;;;;;48.28;22.08;;;3.30;99.90;;;;;;5114267;28;20183;-53
2021/12/23 11:54:14;;;;;;;55.85;23.10;;;3.40;99.90;;;;;;5114091;28;20248;-53
2021/12/23 11:57:08;;;;;;;43.47;25.27;;;3.40;99.90;;;;;;5113767;28;20287;-53
2021/12/23 11:59:42;;;;;;;50.67;30.48;;;3.30;99.90;;;;;;5110669;28;20186;-52
2021/12/23 12:02:20;;;;;;;36.97;17.27;;;3.30;99.90;;;;;;5113444;28;20540;-53
2021/12/23 12:04:47;;;;;;;35.15;22.30;;;3.40;99.90;;;;;;5113759;28;20542;-54
2021/12/23 12:07:21;;;;;;;37.70;21.40;;;3.40;99.90;;;;;;5094127;28;20217;-53
2021/12/23 12:09:57;;;;;;;42.88;23.83;;;3.40;99.90;;;;;;5113241;28;20646;-53
2021/12/23 12:12:23;;;;;;;31.58;16.13;;;3.40;99.90;;;;;;5113333;28;20195;-53
2021/12/23 12:14:51;;;;;;;31.70;19.38;;;3.40;99.90;;;;;;5113312;28;20214;-53
2021/12/23 12:17:25;;;;;;;47.90;27.25;;;3.40;99.90;;;;;;5113155;28;20232;-51
2021/12/23 12:20:08;;;;;;;39.63;25.48;;;3.50;99.90;;;;;;5113218;28;20164;-53
2021/12/23 12:22:52;;;;;;;40.67;20.15;;;3.50;99.90;;;;;;5113167;28;20185;-52
2021/12/23 12:25:23;;;;;;;34.53;21.73;;;3.50;99.90;;;;;;5113012;28;20699;-53
2021/12/23 12:27:55;;;;;;;28.83;16.40;;;3.60;99.90;;;;;;5113285;28;20172;-52
2021/12/23 12:30:35;;;;;;;34.75;17.25;;;3.50;99.90;;;;;;5112936;28;20165;-53
2021/12/23 12:33:24;;;;;;;35.63;17.73;;;3.50;99.90;;;;;;5113198;28;20516;-51
2021/12/23 12:36:01;;;;;;;33.92;17.30;;;3.50;99.90;;;;;;5099157;28;20198;-53
2021/12/23 12:38:30;;;;;;;29.95;15.35;;;3.60;99.90;;;;;;5113098;28;20168;-53
2021/12/23 12:41:06;;;;;;;26.17;15.35;;;3.70;99.90;;;;;;5112732;28;20157;-53
2021/12/23 12:43:40;;;;;;;24.15;14.57;;;3.70;99.90;;;;;;5113134;28;20168;-52
2021/12/23 12:46:07;;;;;;;25.30;14.38;;;3.70;99.90;;;;;;5112733;28;20167;-53
2021/12/23 12:48:54;;;;;;;25.88;14.45;;;3.70;99.90;;;;;;5112500;28;20172;-53
2021/12/23 12:51:23;;;;;;;28.42;15.60;;;3.70;99.90;;;;;;5112845;28;20168;-53
2021/12/23 12:54:06;;;;;;;27.90;16.45;;;2.90;99.90;;;;;;5112844;28;20156;-53
2021/12/23 12:56:43;;;;;;;35.88;20.58;;;3.70;99.90;;;;;;5112552;28;20208;-52
2021/12/23 12:59:09;;;;;;;27.23;15.45;;;3.80;99.90;;;;;;5112670;28;20624;-53
2021/12/23 13:01:40;;;;;;;33.63;17.60;;;3.90;99.90;;;;;;5094464;28;20172;-53
2021/12/23 13:04:26;;;;;;;31.52;16.77;;;4.00;99.90;;;;;;5112730;28;20710;-53
2021/12/23 13:06:54;;;;;;;27.20;15.93;;;4.10;99.90;;;;;;5112533;28;20246;-53
2021/12/23 13:09:28;;;;;;;29.55;16.20;;;4.10;99.90;;;;;;5112285;28;20179;-53
2021/12/23 13:11:58;;;;;;;28.65;14.85;;;4.10;99.90;;;;;;5112331;28;20683;-53
2021/12/23 13:14:57;;;;;;;28.40;17.00;;;4.10;99.90;;;;;;5112613;28;20180;-53
2021/12/23 13:17:24;;;;;;;31.48;16.50;;;4.10;99.90;;;;;;5112186;28;20204;-53
2021/12/23 13:19:51;;;;;;;30.70;15.95;;;4.00;99.90;;;;;;5112470;28;20631;-53
2021/12/23 13:22:19;;;;;;;32.83;16.80;;;4.00;99.90;;;;;;5112551;28;20251;-52
2021/12/23 13:24:44;;;;;;;37.85;16.48;;;4.10;99.90;;;;;;5112702;28;20169;-53
2021/12/23 13:27:10;;;;;;;30.40;15.98;;;4.10;99.90;;;;;;5112523;28;20251;-53
2021/12/23 13:29:40;;;;;;;26.13;16.58;;;4.10;99.90;;;;;;5112509;28;20157;-53
2021/12/23 13:32:05;;;;;;;40.88;23.23;;;4.10;99.90;;;;;;5112635;28;20220;-53
2021/12/23 13:34:33;;;;;;;29.10;17.17;;;4.10;99.90;;;;;;5112487;28;20716;-53
2021/12/23 13:37:06;;;;;;;30.58;19.30;;;4.10;99.90;;;;;;5112851;28;20258;-52
2021/12/23 13:39:35;;;;;;;42.88;26.38;;;4.00;99.90;;;;;;5112562;28;20237;-52
2021/12/23 13:42:06;;;;;;;29.77;16.02;;;4.10;99.90;;;;;;5112538;28;20203;-52
2021/12/23 13:44:39;;;;;;;31.30;17.13;;;4.00;99.90;;;;;;5112244;28;20176;-53
2021/12/23 13:47:07;;;;;;;28.63;17.38;;;4.10;99.90;;;;;;5112453;28;20252;-52
2021/12/23 13:49:41;;;;;;;26.75;16.48;;;4.10;99.90;;;;;;5094256;28;20203;-53